sensor_id;sensor_type;location;lat;lon;timestamp;temperature;humidity
15394;DHT22;7795;47.986;11.868;2022-12-07T00:01:31;6.70;82.30
15394;DHT22;7795;47.986;11.868;2022-12-07T00:03:58;6.80;82.50
15394;DHT22;7795;47.986;11.868;2022-12-07T00:06:31;6.70;82.40
15394;DHT22;7795;47.986;11.868;2022-12-07T00:08:57;6.70;82.50
15394;DHT22;7795;47.986;11.868;2022-12-07T00:11:23;6.70;82.60
15394;DHT22;7795;47.986;11.868;2022-12-07T00:13:52;6.70;82.60
15394;DHT22;7795;47.986;11.868;2022-12-07T00:16:19;6.70;82.60
15394;DHT22;7795;47.986;11.868;2022-12-07T00:18:47;6.70;82.60
15394;DHT22;7795;47.986;11.868;2022-12-07T00:21:15;6.70;82.60
15394;DHT22;7795;47.986;11.868;2022-12-07T00:23:42;6.70;82.60
15394;DHT22;7795;47.986;11.868;2022-12-07T00:26:10;6.70;82.60
15394;DHT22;7795;47.986;11.868;2022-12-07T00:28:36;6.70;82.60
15394;DHT22;7795;47.986;11.868;2022-12-07T00:31:04;6.70;82.60
15394;DHT22;7795;47.986;11.868;2022-12-07T00:33:30;6.70;82.60
15394;DHT22;7795;47.986;11.868;2022-12-07T00:35:58;6.70;82.60
15394;DHT22;7795;47.986;11.868;2022-12-07T00:38:24;6.70;82.60
15394;DHT22;7795;47.986;11.868;2022-12-07T00:40:56;6.70;82.60
15394;DHT22;7795;47.986;11.868;2022-12-07T00:43:22;6.70;82.60
15394;DHT22;7795;47.986;11.868;2022-12-07T00:45:48;6.70;82.60
15394;DHT22;7795;47.986;11.868;2022-12-07T00:48:13;6.70;82.60
15394;DHT22;7795;47.986;11.868;2022-12-07T00:50:39;6.70;82.60
15394;DHT22;7795;47.986;11.868;2022-12-07T00:53:06;6.70;82.60
15394;DHT22;7795;47.986;11.868;2022-12-07T00:55:33;6.70;82.60
15394;DHT22;7795;47.986;11.868;2022-12-07T00:57:58;6.70;82.60
15394;DHT22;7795;47.986;11.868;2022-12-07T01:00:24;6.70;83.30
15394;DHT22;7795;47.986;11.868;2022-12-07T01:02:50;6.70;82.60
15394;DHT22;7795;47.986;11.868;2022-12-07T01:05:16;6.70;82.60
15394;DHT22;7795;47.986;11.868;2022-12-07T01:07:41;6.70;82.60
15394;DHT22;7795;47.986;11.868;2022-12-07T01:10:09;6.70;82.70
15394;DHT22;7795;47.986;11.868;2022-12-07T01:12:35;6.70;82.80
15394;DHT22;7795;47.986;11.868;2022-12-07T01:15:01;6.70;82.70
15394;DHT22;7795;47.986;11.868;2022-12-07T01:17:28;6.70;82.80
15394;DHT22;7795;47.986;11.868;2022-12-07T01:19:53;6.70;82.80
15394;DHT22;7795;47.986;11.868;2022-12-07T01:22:19;6.70;82.80
15394;DHT22;7795;47.986;11.868;2022-12-07T01:24:45;6.70;82.90
15394;DHT22;7795;47.986;11.868;2022-12-07T01:27:13;6.70;82.80
15394;DHT22;7795;47.986;11.868;2022-12-07T01:29:39;6.70;82.80
15394;DHT22;7795;47.986;11.868;2022-12-07T01:32:05;6.70;82.80
15394;DHT22;7795;47.986;11.868;2022-12-07T01:34:31;6.70;82.80
15394;DHT22;7795;47.986;11.868;2022-12-07T01:36:56;6.70;82.80
15394;DHT22;7795;47.986;11.868;2022-12-07T01:39:23;6.70;82.80
15394;DHT22;7795;47.986;11.868;2022-12-07T01:41:49;6.70;82.70
15394;DHT22;7795;47.986;11.868;2022-12-07T01:44:22;6.70;82.60
15394;DHT22;7795;47.986;11.868;2022-12-07T01:46:49;6.80;82.60
15394;DHT22;7795;47.986;11.868;2022-12-07T01:49:21;6.70;82.60
15394;DHT22;7795;47.986;11.868;2022-12-07T01:51:49;6.80;82.70
15394;DHT22;7795;47.986;11.868;2022-12-07T01:54:17;6.80;82.70
15394;DHT22;7795;47.986;11.868;2022-12-07T01:56:48;6.80;82.60
15394;DHT22;7795;47.986;11.868;2022-12-07T01:59:15;6.70;82.50
15394;DHT22;7795;47.986;11.868;2022-12-07T02:01:43;6.80;82.60
15394;DHT22;7795;47.986;11.868;2022-12-07T02:04:10;6.80;82.60
15394;DHT22;7795;47.986;11.868;2022-12-07T02:06:37;6.70;83.20
15394;DHT22;7795;47.986;11.868;2022-12-07T02:09:03;6.80;82.60
15394;DHT22;7795;47.986;11.868;2022-12-07T02:11:29;6.70;82.50
15394;DHT22;7795;47.986;11.868;2022-12-07T02:13:56;6.80;82.60
15394;DHT22;7795;47.986;11.868;2022-12-07T02:16:29;6.70;82.60
15394;DHT22;7795;47.986;11.868;2022-12-07T02:21:52;6.70;82.50
15394;DHT22;7795;47.986;11.868;2022-12-07T02:24:34;6.80;82.50
15394;DHT22;7795;47.986;11.868;2022-12-07T02:27:14;6.80;82.50
15394;DHT22;7795;47.986;11.868;2022-12-07T02:29:47;6.80;82.50
15394;DHT22;7795;47.986;11.868;2022-12-07T02:32:23;6.70;82.40
15394;DHT22;7795;47.986;11.868;2022-12-07T02:34:51;6.70;82.50
15394;DHT22;7795;47.986;11.868;2022-12-07T02:37:28;6.70;82.50
15394;DHT22;7795;47.986;11.868;2022-12-07T02:40:01;6.70;82.50
15394;DHT22;7795;47.986;11.868;2022-12-07T02:42:33;6.70;82.50
15394;DHT22;7795;47.986;11.868;2022-12-07T02:45:04;6.70;82.50
15394;DHT22;7795;47.986;11.868;2022-12-07T02:47:31;6.70;82.50
15394;DHT22;7795;47.986;11.868;2022-12-07T02:49:59;6.70;82.50
15394;DHT22;7795;47.986;11.868;2022-12-07T02:52:25;6.70;82.80
15394;DHT22;7795;47.986;11.868;2022-12-07T02:54:51;6.70;82.50
15394;DHT22;7795;47.986;11.868;2022-12-07T02:57:36;6.70;82.50
15394;DHT22;7795;47.986;11.868;2022-12-07T03:00:08;6.70;82.40
15394;DHT22;7795;47.986;11.868;2022-12-07T03:02:42;6.70;82.40
15394;DHT22;7795;47.986;11.868;2022-12-07T03:05:41;6.60;82.30
15394;DHT22;7795;47.986;11.868;2022-12-07T03:08:15;6.70;82.30
15394;DHT22;7795;47.986;11.868;2022-12-07T03:10:50;6.70;83.10
15394;DHT22;7795;47.986;11.868;2022-12-07T03:13:22;6.60;82.40
15394;DHT22;7795;47.986;11.868;2022-12-07T03:15:55;6.60;82.40
15394;DHT22;7795;47.986;11.868;2022-12-07T03:18:24;6.60;82.40
15394;DHT22;7795;47.986;11.868;2022-12-07T03:20:55;6.60;82.40
15394;DHT22;7795;47.986;11.868;2022-12-07T03:23:23;6.60;82.40
15394;DHT22;7795;47.986;11.868;2022-12-07T03:25:53;6.60;82.30
15394;DHT22;7795;47.986;11.868;2022-12-07T03:28:21;6.60;82.40
15394;DHT22;7795;47.986;11.868;2022-12-07T03:30:54;6.60;82.50
15394;DHT22;7795;47.986;11.868;2022-12-07T03:33:23;6.60;82.50
15394;DHT22;7795;47.986;11.868;2022-12-07T03:35:56;6.60;82.50
15394;DHT22;7795;47.986;11.868;2022-12-07T03:38:27;6.60;82.50
15394;DHT22;7795;47.986;11.868;2022-12-07T03:41:00;6.60;82.50
15394;DHT22;7795;47.986;11.868;2022-12-07T03:43:28;6.60;82.50
15394;DHT22;7795;47.986;11.868;2022-12-07T03:46:00;6.60;82.50
15394;DHT22;7795;47.986;11.868;2022-12-07T03:48:34;6.60;82.50
15394;DHT22;7795;47.986;11.868;2022-12-07T03:51:08;6.60;82.50
15394;DHT22;7795;47.986;11.868;2022-12-07T03:53:39;6.60;82.50
15394;DHT22;7795;47.986;11.868;2022-12-07T03:56:06;6.50;82.50
15394;DHT22;7795;47.986;11.868;2022-12-07T03:58:34;6.60;82.50
15394;DHT22;7795;47.986;11.868;2022-12-07T04:01:01;6.50;82.50
15394;DHT22;7795;47.986;11.868;2022-12-07T04:03:27;6.50;82.50
15394;DHT22;7795;47.986;11.868;2022-12-07T04:05:53;6.50;82.60
15394;DHT22;7795;47.986;11.868;2022-12-07T04:08:19;6.50;82.60
15394;DHT22;7795;47.986;11.868;2022-12-07T04:10:45;6.50;82.70
15394;DHT22;7795;47.986;11.868;2022-12-07T04:13:11;6.50;82.80
15394;DHT22;7795;47.986;11.868;2022-12-07T04:15:36;6.50;82.80
15394;DHT22;7795;47.986;11.868;2022-12-07T04:18:03;6.50;82.80
15394;DHT22;7795;47.986;11.868;2022-12-07T04:20:29;6.60;82.80
15394;DHT22;7795;47.986;11.868;2022-12-07T04:22:55;6.60;82.90
15394;DHT22;7795;47.986;11.868;2022-12-07T04:25:21;6.50;82.80
15394;DHT22;7795;47.986;11.868;2022-12-07T04:27:46;6.50;82.80
15394;DHT22;7795;47.986;11.868;2022-12-07T04:30:12;6.60;82.90
15394;DHT22;7795;47.986;11.868;2022-12-07T04:32:38;6.60;82.80
15394;DHT22;7795;47.986;11.868;2022-12-07T04:35:06;6.50;82.70
15394;DHT22;7795;47.986;11.868;2022-12-07T04:37:32;6.50;82.70
15394;DHT22;7795;47.986;11.868;2022-12-07T04:39:58;6.50;82.70
15394;DHT22;7795;47.986;11.868;2022-12-07T04:42:23;6.50;82.80
15394;DHT22;7795;47.986;11.868;2022-12-07T04:44:49;6.50;82.80
15394;DHT22;7795;47.986;11.868;2022-12-07T04:47:16;6.50;82.80
15394;DHT22;7795;47.986;11.868;2022-12-07T04:49:42;6.50;82.80
15394;DHT22;7795;47.986;11.868;2022-12-07T04:52:09;6.60;82.80
15394;DHT22;7795;47.986;11.868;2022-12-07T04:54:34;6.60;82.80
15394;DHT22;7795;47.986;11.868;2022-12-07T04:57:00;6.60;82.80
15394;DHT22;7795;47.986;11.868;2022-12-07T04:59:26;6.60;82.90
15394;DHT22;7795;47.986;11.868;2022-12-07T05:01:52;6.50;82.90
15394;DHT22;7795;47.986;11.868;2022-12-07T05:04:17;6.60;82.90
15394;DHT22;7795;47.986;11.868;2022-12-07T05:06:43;6.60;82.80
15394;DHT22;7795;47.986;11.868;2022-12-07T05:09:11;6.50;82.70
15394;DHT22;7795;47.986;11.868;2022-12-07T05:11:36;6.60;82.80
15394;DHT22;7795;47.986;11.868;2022-12-07T05:14:08;6.50;82.80
15394;DHT22;7795;47.986;11.868;2022-12-07T05:16:34;6.50;82.90
15394;DHT22;7795;47.986;11.868;2022-12-07T05:19:00;6.60;82.90
15394;DHT22;7795;47.986;11.868;2022-12-07T05:21:26;6.50;83.70
15394;DHT22;7795;47.986;11.868;2022-12-07T05:23:52;6.60;83.00
15394;DHT22;7795;47.986;11.868;2022-12-07T05:26:19;6.50;83.00
15394;DHT22;7795;47.986;11.868;2022-12-07T05:28:45;6.60;83.10
15394;DHT22;7795;47.986;11.868;2022-12-07T05:31:10;6.50;83.10
15394;DHT22;7795;47.986;11.868;2022-12-07T05:33:36;6.50;83.20
15394;DHT22;7795;47.986;11.868;2022-12-07T05:36:02;6.50;83.20
15394;DHT22;7795;47.986;11.868;2022-12-07T05:38:31;6.50;83.30
15394;DHT22;7795;47.986;11.868;2022-12-07T05:41:00;6.50;83.30
15394;DHT22;7795;47.986;11.868;2022-12-07T05:43:28;6.50;83.50
15394;DHT22;7795;47.986;11.868;2022-12-07T05:45:53;6.50;83.40
15394;DHT22;7795;47.986;11.868;2022-12-07T05:48:19;6.50;83.30
15394;DHT22;7795;47.986;11.868;2022-12-07T05:50:47;6.50;83.30
15394;DHT22;7795;47.986;11.868;2022-12-07T05:53:13;6.50;83.50
15394;DHT22;7795;47.986;11.868;2022-12-07T05:55:39;6.50;83.50
15394;DHT22;7795;47.986;11.868;2022-12-07T05:58:04;6.50;83.40
15394;DHT22;7795;47.986;11.868;2022-12-07T06:00:50;6.50;83.50
15394;DHT22;7795;47.986;11.868;2022-12-07T06:03:16;6.50;83.40
15394;DHT22;7795;47.986;11.868;2022-12-07T06:05:42;6.50;83.30
15394;DHT22;7795;47.986;11.868;2022-12-07T06:08:08;6.50;83.30
15394;DHT22;7795;47.986;11.868;2022-12-07T06:10:33;6.50;83.30
15394;DHT22;7795;47.986;11.868;2022-12-07T06:12:59;6.50;83.30
15394;DHT22;7795;47.986;11.868;2022-12-07T06:15:25;6.50;83.30
15394;DHT22;7795;47.986;11.868;2022-12-07T06:17:52;6.50;83.30
15394;DHT22;7795;47.986;11.868;2022-12-07T06:20:18;6.50;83.20
15394;DHT22;7795;47.986;11.868;2022-12-07T06:22:43;6.50;83.10
15394;DHT22;7795;47.986;11.868;2022-12-07T06:25:09;6.50;83.10
15394;DHT22;7795;47.986;11.868;2022-12-07T06:27:35;6.40;83.10
15394;DHT22;7795;47.986;11.868;2022-12-07T06:30:01;6.40;83.20
15394;DHT22;7795;47.986;11.868;2022-12-07T06:32:31;6.40;83.30
15394;DHT22;7795;47.986;11.868;2022-12-07T06:34:59;6.40;83.30
15394;DHT22;7795;47.986;11.868;2022-12-07T06:37:25;6.40;83.40
15394;DHT22;7795;47.986;11.868;2022-12-07T06:39:50;6.40;83.30
15394;DHT22;7795;47.986;11.868;2022-12-07T06:42:16;6.40;83.40
15394;DHT22;7795;47.986;11.868;2022-12-07T06:44:42;6.40;83.30
15394;DHT22;7795;47.986;11.868;2022-12-07T06:47:08;6.40;83.30
15394;DHT22;7795;47.986;11.868;2022-12-07T06:49:34;6.40;84.10
15394;DHT22;7795;47.986;11.868;2022-12-07T06:52:01;6.40;83.50
15394;DHT22;7795;47.986;11.868;2022-12-07T06:54:27;6.30;83.40
15394;DHT22;7795;47.986;11.868;2022-12-07T06:56:55;6.30;83.30
15394;DHT22;7795;47.986;11.868;2022-12-07T06:59:21;6.30;83.30
15394;DHT22;7795;47.986;11.868;2022-12-07T07:01:47;6.30;83.30
15394;DHT22;7795;47.986;11.868;2022-12-07T07:04:13;6.30;83.30
15394;DHT22;7795;47.986;11.868;2022-12-07T07:06:38;6.30;83.40
15394;DHT22;7795;47.986;11.868;2022-12-07T07:09:06;6.30;83.30
15394;DHT22;7795;47.986;11.868;2022-12-07T07:11:31;6.30;83.40
15394;DHT22;7795;47.986;11.868;2022-12-07T07:13:57;6.30;83.30
15394;DHT22;7795;47.986;11.868;2022-12-07T07:16:27;6.30;83.40
15394;DHT22;7795;47.986;11.868;2022-12-07T07:18:53;6.20;83.30
15394;DHT22;7795;47.986;11.868;2022-12-07T07:21:18;6.30;83.30
15394;DHT22;7795;47.986;11.868;2022-12-07T07:23:44;6.30;83.30
15394;DHT22;7795;47.986;11.868;2022-12-07T07:26:11;6.20;83.30
15394;DHT22;7795;47.986;11.868;2022-12-07T07:28:37;6.20;83.20
15394;DHT22;7795;47.986;11.868;2022-12-07T07:31:03;6.20;83.30
15394;DHT22;7795;47.986;11.868;2022-12-07T07:33:29;6.20;83.40
15394;DHT22;7795;47.986;11.868;2022-12-07T07:35:55;6.20;83.40
15394;DHT22;7795;47.986;11.868;2022-12-07T07:38:21;6.20;83.50
15394;DHT22;7795;47.986;11.868;2022-12-07T07:40:46;6.20;83.50
15394;DHT22;7795;47.986;11.868;2022-12-07T07:43:13;6.20;83.50
15394;DHT22;7795;47.986;11.868;2022-12-07T07:45:39;6.20;83.50
15394;DHT22;7795;47.986;11.868;2022-12-07T07:48:06;6.20;83.50
15394;DHT22;7795;47.986;11.868;2022-12-07T07:50:31;6.20;83.50
15394;DHT22;7795;47.986;11.868;2022-12-07T07:52:57;6.20;83.50
15394;DHT22;7795;47.986;11.868;2022-12-07T07:55:23;6.20;83.50
15394;DHT22;7795;47.986;11.868;2022-12-07T07:57:49;6.20;84.20
15394;DHT22;7795;47.986;11.868;2022-12-07T08:00:17;6.20;83.50
15394;DHT22;7795;47.986;11.868;2022-12-07T08:02:43;6.20;83.60
15394;DHT22;7795;47.986;11.868;2022-12-07T08:05:10;6.20;83.50
15394;DHT22;7795;47.986;11.868;2022-12-07T08:07:36;6.20;83.50
15394;DHT22;7795;47.986;11.868;2022-12-07T08:10:02;6.20;83.20
15394;DHT22;7795;47.986;11.868;2022-12-07T08:12:28;6.20;83.30
15394;DHT22;7795;47.986;11.868;2022-12-07T08:14:54;6.20;83.40
15394;DHT22;7795;47.986;11.868;2022-12-07T08:17:21;6.20;83.30
15394;DHT22;7795;47.986;11.868;2022-12-07T08:19:47;6.20;83.30
15394;DHT22;7795;47.986;11.868;2022-12-07T08:22:12;6.20;83.30
15394;DHT22;7795;47.986;11.868;2022-12-07T08:24:38;6.30;83.40
15394;DHT22;7795;47.986;11.868;2022-12-07T08:27:04;6.30;83.50
15394;DHT22;7795;47.986;11.868;2022-12-07T08:29:30;6.20;83.30
15394;DHT22;7795;47.986;11.868;2022-12-07T08:31:55;6.20;83.30
15394;DHT22;7795;47.986;11.868;2022-12-07T08:34:22;6.30;83.30
15394;DHT22;7795;47.986;11.868;2022-12-07T08:36:48;6.30;83.30
15394;DHT22;7795;47.986;11.868;2022-12-07T08:39:14;6.30;83.30
15394;DHT22;7795;47.986;11.868;2022-12-07T08:41:40;6.30;83.20
15394;DHT22;7795;47.986;11.868;2022-12-07T08:44:05;6.40;83.20
15394;DHT22;7795;47.986;11.868;2022-12-07T08:46:33;6.40;83.20
15394;DHT22;7795;47.986;11.868;2022-12-07T08:49:06;6.40;83.20
15394;DHT22;7795;47.986;11.868;2022-12-07T08:51:34;6.40;83.10
15394;DHT22;7795;47.986;11.868;2022-12-07T08:54:02;6.40;83.10
15394;DHT22;7795;47.986;11.868;2022-12-07T08:56:29;6.40;83.80
15394;DHT22;7795;47.986;11.868;2022-12-07T08:58:55;6.40;83.10
15394;DHT22;7795;47.986;11.868;2022-12-07T09:01:21;6.40;83.10
15394;DHT22;7795;47.986;11.868;2022-12-07T09:03:46;6.50;83.20
15394;DHT22;7795;47.986;11.868;2022-12-07T09:06:12;6.50;83.20
15394;DHT22;7795;47.986;11.868;2022-12-07T09:08:41;6.50;83.10
15394;DHT22;7795;47.986;11.868;2022-12-07T09:11:09;6.50;83.00
15394;DHT22;7795;47.986;11.868;2022-12-07T09:13:34;6.50;82.90
15394;DHT22;7795;47.986;11.868;2022-12-07T09:16:00;6.60;83.00
15394;DHT22;7795;47.986;11.868;2022-12-07T09:18:26;6.60;82.90
15394;DHT22;7795;47.986;11.868;2022-12-07T09:20:52;6.60;82.90
15394;DHT22;7795;47.986;11.868;2022-12-07T09:23:18;6.60;82.90
15394;DHT22;7795;47.986;11.868;2022-12-07T09:25:45;6.60;83.60
15394;DHT22;7795;47.986;11.868;2022-12-07T09:28:11;6.60;82.80
15394;DHT22;7795;47.986;11.868;2022-12-07T09:30:36;6.70;82.80
15394;DHT22;7795;47.986;11.868;2022-12-07T09:33:02;6.70;82.80
15394;DHT22;7795;47.986;11.868;2022-12-07T09:35:28;6.70;82.70
15394;DHT22;7795;47.986;11.868;2022-12-07T09:37:53;6.70;82.60
15394;DHT22;7795;47.986;11.868;2022-12-07T09:40:21;6.70;82.60
15394;DHT22;7795;47.986;11.868;2022-12-07T09:42:51;6.80;82.70
15394;DHT22;7795;47.986;11.868;2022-12-07T09:45:19;6.80;82.60
15394;DHT22;7795;47.986;11.868;2022-12-07T09:47:46;6.80;82.50
15394;DHT22;7795;47.986;11.868;2022-12-07T09:50:15;6.80;82.50
15394;DHT22;7795;47.986;11.868;2022-12-07T09:52:43;6.90;83.30
15394;DHT22;7795;47.986;11.868;2022-12-07T09:55:12;6.90;82.60
15394;DHT22;7795;47.986;11.868;2022-12-07T09:57:38;6.90;82.50
15394;DHT22;7795;47.986;11.868;2022-12-07T10:00:12;7.00;82.50
15394;DHT22;7795;47.986;11.868;2022-12-07T10:02:40;7.00;82.20
15394;DHT22;7795;47.986;11.868;2022-12-07T10:05:12;7.00;82.20
15394;DHT22;7795;47.986;11.868;2022-12-07T10:07:38;7.10;82.20
15394;DHT22;7795;47.986;11.868;2022-12-07T10:10:13;7.10;82.20
15394;DHT22;7795;47.986;11.868;2022-12-07T10:12:54;7.10;82.00
15394;DHT22;7795;47.986;11.868;2022-12-07T10:15:21;7.10;81.90
15394;DHT22;7795;47.986;11.868;2022-12-07T10:17:49;7.20;82.00
15394;DHT22;7795;47.986;11.868;2022-12-07T10:20:19;7.20;82.00
15394;DHT22;7795;47.986;11.868;2022-12-07T10:22:56;7.20;81.90
15394;DHT22;7795;47.986;11.868;2022-12-07T10:25:24;7.20;81.60
15394;DHT22;7795;47.986;11.868;2022-12-07T10:27:58;7.20;81.70
15394;DHT22;7795;47.986;11.868;2022-12-07T10:30:26;7.30;81.50
15394;DHT22;7795;47.986;11.868;2022-12-07T10:32:51;7.30;81.50
15394;DHT22;7795;47.986;11.868;2022-12-07T10:35:23;7.30;81.50
15394;DHT22;7795;47.986;11.868;2022-12-07T10:37:50;7.30;81.40
15394;DHT22;7795;47.986;11.868;2022-12-07T10:40:31;7.30;81.50
15394;DHT22;7795;47.986;11.868;2022-12-07T10:43:02;7.40;81.20
15394;DHT22;7795;47.986;11.868;2022-12-07T10:45:30;7.40;81.20
15394;DHT22;7795;47.986;11.868;2022-12-07T10:48:00;7.40;81.00
15394;DHT22;7795;47.986;11.868;2022-12-07T10:50:41;7.40;81.00
15394;DHT22;7795;47.986;11.868;2022-12-07T10:53:28;7.40;80.90
15394;DHT22;7795;47.986;11.868;2022-12-07T10:59:16;7.40;80.90
15394;DHT22;7795;47.986;11.868;2022-12-07T11:01:50;7.40;81.20
15394;DHT22;7795;47.986;11.868;2022-12-07T11:04:24;7.40;81.20
15394;DHT22;7795;47.986;11.868;2022-12-07T11:07:00;7.50;81.10
15394;DHT22;7795;47.986;11.868;2022-12-07T11:09:38;7.40;81.00
15394;DHT22;7795;47.986;11.868;2022-12-07T11:12:12;7.50;80.90
15394;DHT22;7795;47.986;11.868;2022-12-07T11:14:48;7.50;80.80
15394;DHT22;7795;47.986;11.868;2022-12-07T11:17:26;7.50;80.60
15394;DHT22;7795;47.986;11.868;2022-12-07T11:20:02;7.50;80.50
15394;DHT22;7795;47.986;11.868;2022-12-07T11:22:36;7.50;80.50
15394;DHT22;7795;47.986;11.868;2022-12-07T11:25:21;7.50;80.20
15394;DHT22;7795;47.986;11.868;2022-12-07T11:27:54;7.50;80.10
15394;DHT22;7795;47.986;11.868;2022-12-07T11:30:28;7.50;80.50
15394;DHT22;7795;47.986;11.868;2022-12-07T11:33:10;7.50;80.30
15394;DHT22;7795;47.986;11.868;2022-12-07T11:35:46;7.50;80.30
15394;DHT22;7795;47.986;11.868;2022-12-07T11:38:16;7.50;80.40
15394;DHT22;7795;47.986;11.868;2022-12-07T11:40:44;7.60;80.50
15394;DHT22;7795;47.986;11.868;2022-12-07T11:43:18;7.60;80.30
15394;DHT22;7795;47.986;11.868;2022-12-07T11:45:52;7.60;80.20
15394;DHT22;7795;47.986;11.868;2022-12-07T11:48:29;7.60;80.20
15394;DHT22;7795;47.986;11.868;2022-12-07T11:50:59;7.60;80.10
15394;DHT22;7795;47.986;11.868;2022-12-07T11:53:29;7.60;80.10
15394;DHT22;7795;47.986;11.868;2022-12-07T11:55:59;7.60;79.90
15394;DHT22;7795;47.986;11.868;2022-12-07T11:58:38;7.60;80.00
15394;DHT22;7795;47.986;11.868;2022-12-07T12:01:14;7.60;79.90
15394;DHT22;7795;47.986;11.868;2022-12-07T12:03:44;7.60;79.70
15394;DHT22;7795;47.986;11.868;2022-12-07T12:06:11;7.60;79.70
15394;DHT22;7795;47.986;11.868;2022-12-07T12:08:41;7.60;79.80
15394;DHT22;7795;47.986;11.868;2022-12-07T12:11:18;7.60;79.80
15394;DHT22;7795;47.986;11.868;2022-12-07T12:14:18;7.60;79.90
15394;DHT22;7795;47.986;11.868;2022-12-07T12:17:20;7.60;79.40
15394;DHT22;7795;47.986;11.868;2022-12-07T12:20:00;7.60;79.30
15394;DHT22;7795;47.986;11.868;2022-12-07T12:22:30;7.60;79.50
15394;DHT22;7795;47.986;11.868;2022-12-07T12:24:58;7.60;79.80
15394;DHT22;7795;47.986;11.868;2022-12-07T12:27:27;7.60;79.90
15394;DHT22;7795;47.986;11.868;2022-12-07T12:29:56;7.60;79.90
15394;DHT22;7795;47.986;11.868;2022-12-07T12:32:33;7.70;79.90
15394;DHT22;7795;47.986;11.868;2022-12-07T12:35:27;7.70;79.70
15394;DHT22;7795;47.986;11.868;2022-12-07T12:37:54;7.70;79.40
15394;DHT22;7795;47.986;11.868;2022-12-07T12:40:40;7.70;79.60
15394;DHT22;7795;47.986;11.868;2022-12-07T12:43:45;7.70;79.00
15394;DHT22;7795;47.986;11.868;2022-12-07T12:46:51;7.70;79.10
15394;DHT22;7795;47.986;11.868;2022-12-07T12:49:36;7.70;78.80
15394;DHT22;7795;47.986;11.868;2022-12-07T12:55:15;7.80;78.70
15394;DHT22;7795;47.986;11.868;2022-12-07T12:57:45;7.80;79.20
15394;DHT22;7795;47.986;11.868;2022-12-07T13:00:17;7.70;79.20
15394;DHT22;7795;47.986;11.868;2022-12-07T13:02:48;7.80;78.90
15394;DHT22;7795;47.986;11.868;2022-12-07T13:05:20;7.80;78.90
15394;DHT22;7795;47.986;11.868;2022-12-07T13:07:54;7.80;78.90
15394;DHT22;7795;47.986;11.868;2022-12-07T13:10:38;7.80;78.70
15394;DHT22;7795;47.986;11.868;2022-12-07T13:13:28;7.80;78.80
15394;DHT22;7795;47.986;11.868;2022-12-07T13:15:56;7.80;78.20
15394;DHT22;7795;47.986;11.868;2022-12-07T13:18:41;7.80;78.70
15394;DHT22;7795;47.986;11.868;2022-12-07T13:21:41;7.80;78.60
15394;DHT22;7795;47.986;11.868;2022-12-07T13:24:10;7.80;78.10
15394;DHT22;7795;47.986;11.868;2022-12-07T13:26:41;7.80;78.30
15394;DHT22;7795;47.986;11.868;2022-12-07T13:29:11;7.80;78.30
15394;DHT22;7795;47.986;11.868;2022-12-07T13:31:39;7.80;78.20
15394;DHT22;7795;47.986;11.868;2022-12-07T13:34:29;7.80;78.40
15394;DHT22;7795;47.986;11.868;2022-12-07T13:36:56;7.80;78.10
15394;DHT22;7795;47.986;11.868;2022-12-07T13:39:25;7.80;78.60
15394;DHT22;7795;47.986;11.868;2022-12-07T13:41:52;7.80;78.50
15394;DHT22;7795;47.986;11.868;2022-12-07T13:44:19;7.80;78.50
15394;DHT22;7795;47.986;11.868;2022-12-07T13:46:51;7.80;78.40
15394;DHT22;7795;47.986;11.868;2022-12-07T13:49:21;7.90;78.40
15394;DHT22;7795;47.986;11.868;2022-12-07T13:51:47;7.90;78.40
15394;DHT22;7795;47.986;11.868;2022-12-07T13:54:14;7.90;78.40
15394;DHT22;7795;47.986;11.868;2022-12-07T13:56:42;7.90;78.40
15394;DHT22;7795;47.986;11.868;2022-12-07T13:59:13;7.90;79.00
15394;DHT22;7795;47.986;11.868;2022-12-07T14:01:40;7.90;78.70
15394;DHT22;7795;47.986;11.868;2022-12-07T14:04:34;7.90;78.90
15394;DHT22;7795;47.986;11.868;2022-12-07T14:07:00;7.90;77.70
15394;DHT22;7795;47.986;11.868;2022-12-07T14:09:41;7.90;78.30
15394;DHT22;7795;47.986;11.868;2022-12-07T14:12:08;7.90;78.30
15394;DHT22;7795;47.986;11.868;2022-12-07T14:14:34;7.90;78.30
15394;DHT22;7795;47.986;11.868;2022-12-07T14:17:02;7.90;78.30
15394;DHT22;7795;47.986;11.868;2022-12-07T14:19:48;7.90;78.20
15394;DHT22;7795;47.986;11.868;2022-12-07T14:22:32;7.90;78.10
15394;DHT22;7795;47.986;11.868;2022-12-07T14:25:16;7.90;78.00
15394;DHT22;7795;47.986;11.868;2022-12-07T14:27:51;7.80;78.30
15394;DHT22;7795;47.986;11.868;2022-12-07T14:30:21;7.80;78.20
15394;DHT22;7795;47.986;11.868;2022-12-07T14:32:53;7.80;78.30
15394;DHT22;7795;47.986;11.868;2022-12-07T14:35:20;7.80;78.10
15394;DHT22;7795;47.986;11.868;2022-12-07T14:37:47;7.80;79.00
15394;DHT22;7795;47.986;11.868;2022-12-07T14:40:14;7.80;78.20
15394;DHT22;7795;47.986;11.868;2022-12-07T14:42:40;7.80;78.20
15394;DHT22;7795;47.986;11.868;2022-12-07T14:45:13;7.80;78.20
15394;DHT22;7795;47.986;11.868;2022-12-07T14:47:39;7.70;78.00
15394;DHT22;7795;47.986;11.868;2022-12-07T14:50:06;7.70;78.20
15394;DHT22;7795;47.986;11.868;2022-12-07T14:52:32;7.70;78.20
15394;DHT22;7795;47.986;11.868;2022-12-07T14:54:58;7.70;78.20
15394;DHT22;7795;47.986;11.868;2022-12-07T14:57:24;7.70;78.20
15394;DHT22;7795;47.986;11.868;2022-12-07T14:59:50;7.70;78.20
15394;DHT22;7795;47.986;11.868;2022-12-07T15:02:17;7.70;78.20
15394;DHT22;7795;47.986;11.868;2022-12-07T15:04:42;7.70;78.20
15394;DHT22;7795;47.986;11.868;2022-12-07T15:07:14;7.60;78.10
15394;DHT22;7795;47.986;11.868;2022-12-07T15:09:41;7.60;78.00
15394;DHT22;7795;47.986;11.868;2022-12-07T15:12:07;7.60;78.10
15394;DHT22;7795;47.986;11.868;2022-12-07T15:14:32;7.60;78.10
15394;DHT22;7795;47.986;11.868;2022-12-07T15:16:58;7.60;78.10
15394;DHT22;7795;47.986;11.868;2022-12-07T15:19:25;7.60;78.10
15394;DHT22;7795;47.986;11.868;2022-12-07T15:21:52;7.60;78.00
15394;DHT22;7795;47.986;11.868;2022-12-07T15:24:18;7.50;78.00
15394;DHT22;7795;47.986;11.868;2022-12-07T15:26:45;7.50;78.70
15394;DHT22;7795;47.986;11.868;2022-12-07T15:29:11;7.50;77.90
15394;DHT22;7795;47.986;11.868;2022-12-07T15:31:37;7.50;77.90
15394;DHT22;7795;47.986;11.868;2022-12-07T15:34:03;7.50;77.80
15394;DHT22;7795;47.986;11.868;2022-12-07T15:36:34;7.40;77.80
15394;DHT22;7795;47.986;11.868;2022-12-07T15:39:00;7.40;77.70
15394;DHT22;7795;47.986;11.868;2022-12-07T15:41:26;7.40;77.80
15394;DHT22;7795;47.986;11.868;2022-12-07T15:43:52;7.30;77.70
15394;DHT22;7795;47.986;11.868;2022-12-07T15:46:38;7.30;77.70
15394;DHT22;7795;47.986;11.868;2022-12-07T15:49:07;7.30;77.70
15394;DHT22;7795;47.986;11.868;2022-12-07T15:51:35;7.20;77.70
15394;DHT22;7795;47.986;11.868;2022-12-07T15:54:01;7.20;77.80
15394;DHT22;7795;47.986;11.868;2022-12-07T15:56:27;7.10;77.90
15394;DHT22;7795;47.986;11.868;2022-12-07T15:58:52;7.00;77.90
15394;DHT22;7795;47.986;11.868;2022-12-07T16:01:19;7.00;77.90
15394;DHT22;7795;47.986;11.868;2022-12-07T16:03:45;6.90;77.90
15394;DHT22;7795;47.986;11.868;2022-12-07T16:06:11;6.90;77.90
15394;DHT22;7795;47.986;11.868;2022-12-07T16:08:41;6.90;78.30